Ouarzazate, Morocco
Current Conditions -  °F | °C
As of 9:00 PM on Monday 24 Nov 2014 (Local Time) from GMMZ Reporting Station
Few Clouds Few Clouds  
Wind Chill: 57°   Ceiling: Unl
Heat Index: 57°   Visibility: 6mi
Dew Point: 43°   Wind: 6mph
Humidity: 59%   Direction: 10°N
Pressure: 30"   Gusts: NA
Location:  30.92°N, 6.9°W
Report Text: GMMZ 242000Z 01005KT 340V070 9999 FEW020 14/06 Q1016 NOSIG
Loading
Personal Weather Stations






























Interactive Weather Map New forecast layout! Learn more

10-Day Weather Forecast

Advertisements
Track Severe Weather on mobile